sensor_id;sensor_type;location;lat;lon;timestamp;temperature;humidity
22364;DHT22;11349;53.412;-1.328;2022-12-07T00:01:46;4.40;99.90
22364;DHT22;11349;53.412;-1.328;2022-12-07T00:04:14;4.40;99.90
22364;DHT22;11349;53.412;-1.328;2022-12-07T00:06:45;4.40;99.90
22364;DHT22;11349;53.412;-1.328;2022-12-07T00:09:15;4.40;99.90
22364;DHT22;11349;53.412;-1.328;2022-12-07T00:11:41;4.40;99.90
22364;DHT22;11349;53.412;-1.328;2022-12-07T00:14:13;4.30;99.90
22364;DHT22;11349;53.412;-1.328;2022-12-07T00:16:39;4.40;99.90
22364;DHT22;11349;53.412;-1.328;2022-12-07T00:19:05;4.30;99.90
22364;DHT22;11349;53.412;-1.328;2022-12-07T00:21:33;4.30;99.90
22364;DHT22;11349;53.412;-1.328;2022-12-07T00:24:00;4.20;99.90
22364;DHT22;11349;53.412;-1.328;2022-12-07T00:26:29;4.20;99.90
22364;DHT22;11349;53.412;-1.328;2022-12-07T00:28:57;4.10;99.90
22364;DHT22;11349;53.412;-1.328;2022-12-07T00:31:25;4.10;99.90
22364;DHT22;11349;53.412;-1.328;2022-12-07T00:33:51;4.10;99.90
22364;DHT22;11349;53.412;-1.328;2022-12-07T00:36:20;4.00;99.90
22364;DHT22;11349;53.412;-1.328;2022-12-07T00:38:47;4.00;99.90
22364;DHT22;11349;53.412;-1.328;2022-12-07T00:41:14;4.00;99.90
22364;DHT22;11349;53.412;-1.328;2022-12-07T00:43:41;4.00;99.90
22364;DHT22;11349;53.412;-1.328;2022-12-07T00:46:08;4.00;99.90
22364;DHT22;11349;53.412;-1.328;2022-12-07T00:48:34;4.00;99.90
22364;DHT22;11349;53.412;-1.328;2022-12-07T00:51:00;3.90;99.90
22364;DHT22;11349;53.412;-1.328;2022-12-07T00:53:27;3.80;99.90
22364;DHT22;11349;53.412;-1.328;2022-12-07T00:55:53;3.80;99.90
22364;DHT22;11349;53.412;-1.328;2022-12-07T00:58:19;3.70;99.90
22364;DHT22;11349;53.412;-1.328;2022-12-07T01:00:45;3.70;99.90
22364;DHT22;11349;53.412;-1.328;2022-12-07T01:03:12;3.60;99.90
22364;DHT22;11349;53.412;-1.328;2022-12-07T01:05:38;3.60;99.90
22364;DHT22;11349;53.412;-1.328;2022-12-07T01:08:08;3.60;99.90
22364;DHT22;11349;53.412;-1.328;2022-12-07T01:10:34;3.60;99.90
22364;DHT22;11349;53.412;-1.328;2022-12-07T01:12:59;3.50;99.90
22364;DHT22;11349;53.412;-1.328;2022-12-07T01:15:26;3.50;99.90
22364;DHT22;11349;53.412;-1.328;2022-12-07T01:17:51;3.40;99.90
22364;DHT22;11349;53.412;-1.328;2022-12-07T01:20:17;3.50;99.90
22364;DHT22;11349;53.412;-1.328;2022-12-07T01:22:43;3.40;99.90
22364;DHT22;11349;53.412;-1.328;2022-12-07T01:25:11;3.40;99.90
22364;DHT22;11349;53.412;-1.328;2022-12-07T01:27:37;3.30;99.90
22364;DHT22;11349;53.412;-1.328;2022-12-07T01:30:06;3.30;99.90
22364;DHT22;11349;53.412;-1.328;2022-12-07T01:32:33;3.30;99.90
22364;DHT22;11349;53.412;-1.328;2022-12-07T01:34:58;3.30;99.90
22364;DHT22;11349;53.412;-1.328;2022-12-07T01:37:24;3.40;99.90
22364;DHT22;11349;53.412;-1.328;2022-12-07T01:39:52;3.30;99.90
22364;DHT22;11349;53.412;-1.328;2022-12-07T01:42:19;3.20;99.90
22364;DHT22;11349;53.412;-1.328;2022-12-07T01:47:54;3.10;99.90
22364;DHT22;11349;53.412;-1.328;2022-12-07T01:50:21;3.10;99.90
22364;DHT22;11349;53.412;-1.328;2022-12-07T01:52:50;3.10;99.90
22364;DHT22;11349;53.412;-1.328;2022-12-07T01:55:18;3.00;99.90
22364;DHT22;11349;53.412;-1.328;2022-12-07T01:57:48;3.00;99.90
22364;DHT22;11349;53.412;-1.328;2022-12-07T02:00:15;3.00;99.90
22364;DHT22;11349;53.412;-1.328;2022-12-07T02:03:08;3.00;99.90
22364;DHT22;11349;53.412;-1.328;2022-12-07T02:05:37;3.00;99.90
22364;DHT22;11349;53.412;-1.328;2022-12-07T02:08:04;2.90;99.90
22364;DHT22;11349;53.412;-1.328;2022-12-07T02:10:31;2.90;99.90
22364;DHT22;11349;53.412;-1.328;2022-12-07T02:13:28;3.00;99.90
22364;DHT22;11349;53.412;-1.328;2022-12-07T02:21:12;2.90;99.90
22364;DHT22;11349;53.412;-1.328;2022-12-07T02:29:24;3.10;99.90
22364;DHT22;11349;53.412;-1.328;2022-12-07T02:34:50;3.00;99.90
22364;DHT22;11349;53.412;-1.328;2022-12-07T02:40:08;2.80;99.90
22364;DHT22;11349;53.412;-1.328;2022-12-07T02:42:45;2.80;99.90
22364;DHT22;11349;53.412;-1.328;2022-12-07T02:45:14;2.80;99.90
22364;DHT22;11349;53.412;-1.328;2022-12-07T02:47:41;2.80;99.90
22364;DHT22;11349;53.412;-1.328;2022-12-07T02:50:08;2.80;99.90
22364;DHT22;11349;53.412;-1.328;2022-12-07T02:52:34;2.80;99.90
22364;DHT22;11349;53.412;-1.328;2022-12-07T02:55:00;2.80;99.90
22364;DHT22;11349;53.412;-1.328;2022-12-07T03:00:11;2.80;99.90
22364;DHT22;11349;53.412;-1.328;2022-12-07T03:08:09;2.70;99.90
22364;DHT22;11349;53.412;-1.328;2022-12-07T03:10:48;2.70;99.90
22364;DHT22;11349;53.412;-1.328;2022-12-07T03:13:37;2.60;99.90
22364;DHT22;11349;53.412;-1.328;2022-12-07T03:16:24;2.60;99.90
22364;DHT22;11349;53.412;-1.328;2022-12-07T03:18:56;2.60;99.90
22364;DHT22;11349;53.412;-1.328;2022-12-07T03:21:32;2.60;99.90
22364;DHT22;11349;53.412;-1.328;2022-12-07T03:24:02;2.60;99.90
22364;DHT22;11349;53.412;-1.328;2022-12-07T03:26:37;2.60;99.90
22364;DHT22;11349;53.412;-1.328;2022-12-07T03:29:27;2.60;99.90
22364;DHT22;11349;53.412;-1.328;2022-12-07T03:35:05;2.50;99.90
22364;DHT22;11349;53.412;-1.328;2022-12-07T03:37:40;2.50;99.90
22364;DHT22;11349;53.412;-1.328;2022-12-07T03:42:39;2.40;99.90
22364;DHT22;11349;53.412;-1.328;2022-12-07T03:45:06;2.30;99.90
22364;DHT22;11349;53.412;-1.328;2022-12-07T03:50:36;2.30;99.90
22364;DHT22;11349;53.412;-1.328;2022-12-07T03:53:25;2.30;99.90
22364;DHT22;11349;53.412;-1.328;2022-12-07T03:55:56;2.20;99.90
22364;DHT22;11349;53.412;-1.328;2022-12-07T03:58:23;2.20;99.90
22364;DHT22;11349;53.412;-1.328;2022-12-07T04:00:50;2.20;99.90
22364;DHT22;11349;53.412;-1.328;2022-12-07T04:03:16;2.20;99.90
22364;DHT22;11349;53.412;-1.328;2022-12-07T04:05:42;2.20;99.90
22364;DHT22;11349;53.412;-1.328;2022-12-07T04:08:08;2.20;99.90
22364;DHT22;11349;53.412;-1.328;2022-12-07T04:10:34;2.20;99.90
22364;DHT22;11349;53.412;-1.328;2022-12-07T04:13:00;2.20;99.90
22364;DHT22;11349;53.412;-1.328;2022-12-07T04:15:26;2.20;99.90
22364;DHT22;11349;53.412;-1.328;2022-12-07T04:17:52;2.30;99.90
22364;DHT22;11349;53.412;-1.328;2022-12-07T04:20:19;2.30;99.90
22364;DHT22;11349;53.412;-1.328;2022-12-07T04:22:45;2.30;99.90
22364;DHT22;11349;53.412;-1.328;2022-12-07T04:25:10;2.40;99.90
22364;DHT22;11349;53.412;-1.328;2022-12-07T04:27:36;2.30;99.90
22364;DHT22;11349;53.412;-1.328;2022-12-07T04:30:02;2.30;99.90
22364;DHT22;11349;53.412;-1.328;2022-12-07T04:32:28;2.20;99.90
22364;DHT22;11349;53.412;-1.328;2022-12-07T04:34:54;2.20;99.90
22364;DHT22;11349;53.412;-1.328;2022-12-07T04:37:20;2.20;99.90
22364;DHT22;11349;53.412;-1.328;2022-12-07T04:39:45;2.20;99.90
22364;DHT22;11349;53.412;-1.328;2022-12-07T04:42:11;2.20;99.90
22364;DHT22;11349;53.412;-1.328;2022-12-07T04:44:38;2.10;99.90
22364;DHT22;11349;53.412;-1.328;2022-12-07T04:47:04;2.10;99.90
22364;DHT22;11349;53.412;-1.328;2022-12-07T04:49:30;2.10;99.90
22364;DHT22;11349;53.412;-1.328;2022-12-07T04:51:56;2.20;99.90
22364;DHT22;11349;53.412;-1.328;2022-12-07T04:54:21;2.10;99.90
22364;DHT22;11349;53.412;-1.328;2022-12-07T04:56:47;2.20;99.90
22364;DHT22;11349;53.412;-1.328;2022-12-07T04:59:14;2.10;99.90
22364;DHT22;11349;53.412;-1.328;2022-12-07T05:01:40;2.10;99.90
22364;DHT22;11349;53.412;-1.328;2022-12-07T05:04:06;2.10;99.90
22364;DHT22;11349;53.412;-1.328;2022-12-07T05:06:32;2.10;99.90
22364;DHT22;11349;53.412;-1.328;2022-12-07T05:08:57;2.10;99.90
22364;DHT22;11349;53.412;-1.328;2022-12-07T05:11:23;2.10;99.90
22364;DHT22;11349;53.412;-1.328;2022-12-07T05:14:20;2.00;99.90
22364;DHT22;11349;53.412;-1.328;2022-12-07T05:16:48;2.00;99.90
22364;DHT22;11349;53.412;-1.328;2022-12-07T05:19:15;1.90;99.90
22364;DHT22;11349;53.412;-1.328;2022-12-07T05:21:41;1.90;99.90
22364;DHT22;11349;53.412;-1.328;2022-12-07T05:24:09;1.90;99.90
22364;DHT22;11349;53.412;-1.328;2022-12-07T05:26:35;1.90;99.90
22364;DHT22;11349;53.412;-1.328;2022-12-07T05:29:00;1.90;99.90
22364;DHT22;11349;53.412;-1.328;2022-12-07T05:31:27;1.80;99.90
22364;DHT22;11349;53.412;-1.328;2022-12-07T05:33:53;1.80;99.90
22364;DHT22;11349;53.412;-1.328;2022-12-07T05:36:18;1.80;99.90
22364;DHT22;11349;53.412;-1.328;2022-12-07T05:38:44;1.80;99.90
22364;DHT22;11349;53.412;-1.328;2022-12-07T05:41:14;1.80;99.90
22364;DHT22;11349;53.412;-1.328;2022-12-07T05:43:58;1.80;99.90
22364;DHT22;11349;53.412;-1.328;2022-12-07T05:46:24;1.80;99.90
22364;DHT22;11349;53.412;-1.328;2022-12-07T05:48:50;1.80;99.90
22364;DHT22;11349;53.412;-1.328;2022-12-07T05:51:15;1.80;99.90
22364;DHT22;11349;53.412;-1.328;2022-12-07T05:53:41;1.80;99.90
22364;DHT22;11349;53.412;-1.328;2022-12-07T05:56:07;1.80;99.90
22364;DHT22;11349;53.412;-1.328;2022-12-07T05:58:32;1.80;99.90
22364;DHT22;11349;53.412;-1.328;2022-12-07T06:01:24;1.80;99.90
22364;DHT22;11349;53.412;-1.328;2022-12-07T06:03:50;1.80;99.90
22364;DHT22;11349;53.412;-1.328;2022-12-07T06:06:16;1.70;99.90
22364;DHT22;11349;53.412;-1.328;2022-12-07T06:08:41;1.80;99.90
22364;DHT22;11349;53.412;-1.328;2022-12-07T06:11:07;1.70;99.90
22364;DHT22;11349;53.412;-1.328;2022-12-07T06:13:52;1.70;99.90
22364;DHT22;11349;53.412;-1.328;2022-12-07T06:16:18;1.70;99.90
22364;DHT22;11349;53.412;-1.328;2022-12-07T06:18:44;1.70;99.90
22364;DHT22;11349;53.412;-1.328;2022-12-07T06:21:09;1.60;99.90
22364;DHT22;11349;53.412;-1.328;2022-12-07T06:23:35;1.60;99.90
22364;DHT22;11349;53.412;-1.328;2022-12-07T06:26:01;1.60;99.90
22364;DHT22;11349;53.412;-1.328;2022-12-07T06:28:26;1.60;99.90
22364;DHT22;11349;53.412;-1.328;2022-12-07T06:31:00;1.60;99.90
22364;DHT22;11349;53.412;-1.328;2022-12-07T06:33:26;1.60;99.90
22364;DHT22;11349;53.412;-1.328;2022-12-07T06:35:52;1.60;99.90
22364;DHT22;11349;53.412;-1.328;2022-12-07T06:38:18;1.50;99.90
22364;DHT22;11349;53.412;-1.328;2022-12-07T06:40:44;1.60;99.90
22364;DHT22;11349;53.412;-1.328;2022-12-07T06:43:10;1.60;99.90
22364;DHT22;11349;53.412;-1.328;2022-12-07T06:45:35;1.60;99.90
22364;DHT22;11349;53.412;-1.328;2022-12-07T06:48:01;1.60;99.90
22364;DHT22;11349;53.412;-1.328;2022-12-07T06:50:27;1.60;99.90
22364;DHT22;11349;53.412;-1.328;2022-12-07T06:52:52;1.60;99.90
22364;DHT22;11349;53.412;-1.328;2022-12-07T06:55:18;1.60;99.90
22364;DHT22;11349;53.412;-1.328;2022-12-07T06:57:44;1.60;99.90
22364;DHT22;11349;53.412;-1.328;2022-12-07T07:00:10;1.70;99.90
22364;DHT22;11349;53.412;-1.328;2022-12-07T07:02:36;1.60;99.90
22364;DHT22;11349;53.412;-1.328;2022-12-07T07:05:02;1.60;99.90
22364;DHT22;11349;53.412;-1.328;2022-12-07T07:07:28;1.60;99.90
22364;DHT22;11349;53.412;-1.328;2022-12-07T07:09:54;1.60;99.90
22364;DHT22;11349;53.412;-1.328;2022-12-07T07:12:20;1.60;99.90
22364;DHT22;11349;53.412;-1.328;2022-12-07T07:14:46;1.50;99.90
22364;DHT22;11349;53.412;-1.328;2022-12-07T07:17:12;1.50;99.90
22364;DHT22;11349;53.412;-1.328;2022-12-07T07:19:39;1.50;99.90
22364;DHT22;11349;53.412;-1.328;2022-12-07T07:22:09;1.50;99.90
22364;DHT22;11349;53.412;-1.328;2022-12-07T07:24:34;1.40;99.90
22364;DHT22;11349;53.412;-1.328;2022-12-07T07:27:00;1.40;99.90
22364;DHT22;11349;53.412;-1.328;2022-12-07T07:29:26;1.40;99.90
22364;DHT22;11349;53.412;-1.328;2022-12-07T07:31:52;1.40;99.90
22364;DHT22;11349;53.412;-1.328;2022-12-07T07:34:17;1.40;99.90
22364;DHT22;11349;53.412;-1.328;2022-12-07T07:36:43;1.40;99.90
22364;DHT22;11349;53.412;-1.328;2022-12-07T07:39:10;1.40;99.90
22364;DHT22;11349;53.412;-1.328;2022-12-07T07:41:38;1.40;99.90
22364;DHT22;11349;53.412;-1.328;2022-12-07T07:44:04;1.50;99.90
22364;DHT22;11349;53.412;-1.328;2022-12-07T07:46:29;1.40;99.90
22364;DHT22;11349;53.412;-1.328;2022-12-07T07:48:55;1.40;99.90
22364;DHT22;11349;53.412;-1.328;2022-12-07T07:51:21;1.40;99.90
22364;DHT22;11349;53.412;-1.328;2022-12-07T07:53:47;1.40;99.90
22364;DHT22;11349;53.412;-1.328;2022-12-07T07:56:13;1.40;99.90
22364;DHT22;11349;53.412;-1.328;2022-12-07T07:58:38;1.30;99.90
22364;DHT22;11349;53.412;-1.328;2022-12-07T08:01:06;1.40;99.90
22364;DHT22;11349;53.412;-1.328;2022-12-07T08:03:31;1.30;99.90
22364;DHT22;11349;53.412;-1.328;2022-12-07T08:05:57;1.20;99.90
22364;DHT22;11349;53.412;-1.328;2022-12-07T08:08:23;1.10;99.90
22364;DHT22;11349;53.412;-1.328;2022-12-07T08:10:49;1.10;99.90
22364;DHT22;11349;53.412;-1.328;2022-12-07T08:13:16;1.10;99.90
22364;DHT22;11349;53.412;-1.328;2022-12-07T08:15:46;1.10;99.90
22364;DHT22;11349;53.412;-1.328;2022-12-07T08:18:14;1.00;99.90
22364;DHT22;11349;53.412;-1.328;2022-12-07T08:20:40;1.00;99.90
22364;DHT22;11349;53.412;-1.328;2022-12-07T08:23:07;0.90;99.90
22364;DHT22;11349;53.412;-1.328;2022-12-07T08:25:34;0.90;99.90
22364;DHT22;11349;53.412;-1.328;2022-12-07T08:28:00;0.90;99.90
22364;DHT22;11349;53.412;-1.328;2022-12-07T08:30:29;0.90;99.90
22364;DHT22;11349;53.412;-1.328;2022-12-07T08:32:57;0.90;99.90
22364;DHT22;11349;53.412;-1.328;2022-12-07T08:35:23;0.90;99.90
22364;DHT22;11349;53.412;-1.328;2022-12-07T08:37:49;1.00;99.90
22364;DHT22;11349;53.412;-1.328;2022-12-07T08:40:15;1.10;99.90
22364;DHT22;11349;53.412;-1.328;2022-12-07T08:42:48;1.10;99.90
22364;DHT22;11349;53.412;-1.328;2022-12-07T08:45:15;1.20;99.90
22364;DHT22;11349;53.412;-1.328;2022-12-07T08:47:49;1.30;99.90
22364;DHT22;11349;53.412;-1.328;2022-12-07T08:50:16;1.30;99.90
22364;DHT22;11349;53.412;-1.328;2022-12-07T08:52:43;1.30;99.90
22364;DHT22;11349;53.412;-1.328;2022-12-07T08:55:12;1.40;99.90
22364;DHT22;11349;53.412;-1.328;2022-12-07T08:57:39;1.40;99.90
22364;DHT22;11349;53.412;-1.328;2022-12-07T09:00:06;1.50;99.90
22364;DHT22;11349;53.412;-1.328;2022-12-07T09:02:32;1.60;99.90
22364;DHT22;11349;53.412;-1.328;2022-12-07T09:04:58;1.80;99.90
22364;DHT22;11349;53.412;-1.328;2022-12-07T09:07:24;1.90;99.90
22364;DHT22;11349;53.412;-1.328;2022-12-07T09:09:50;2.00;99.90
22364;DHT22;11349;53.412;-1.328;2022-12-07T09:12:16;2.10;99.90
22364;DHT22;11349;53.412;-1.328;2022-12-07T09:14:42;2.20;99.90
22364;DHT22;11349;53.412;-1.328;2022-12-07T09:17:09;2.20;99.90
22364;DHT22;11349;53.412;-1.328;2022-12-07T09:19:36;2.20;99.90
22364;DHT22;11349;53.412;-1.328;2022-12-07T09:22:02;2.10;99.90
22364;DHT22;11349;53.412;-1.328;2022-12-07T09:24:30;2.00;99.90
22364;DHT22;11349;53.412;-1.328;2022-12-07T09:26:57;2.00;99.90
22364;DHT22;11349;53.412;-1.328;2022-12-07T09:29:23;2.00;99.90
22364;DHT22;11349;53.412;-1.328;2022-12-07T09:31:48;2.00;99.90
22364;DHT22;11349;53.412;-1.328;2022-12-07T09:34:17;2.00;99.90
22364;DHT22;11349;53.412;-1.328;2022-12-07T09:36:43;2.10;99.90
22364;DHT22;11349;53.412;-1.328;2022-12-07T09:39:09;2.10;99.90
22364;DHT22;11349;53.412;-1.328;2022-12-07T09:41:39;2.10;99.90
22364;DHT22;11349;53.412;-1.328;2022-12-07T09:44:16;2.20;99.90
22364;DHT22;11349;53.412;-1.328;2022-12-07T09:46:43;2.20;99.90
22364;DHT22;11349;53.412;-1.328;2022-12-07T09:49:19;2.40;99.90
22364;DHT22;11349;53.412;-1.328;2022-12-07T09:51:47;2.50;99.90
22364;DHT22;11349;53.412;-1.328;2022-12-07T09:54:15;2.60;99.90
22364;DHT22;11349;53.412;-1.328;2022-12-07T09:56:43;2.80;99.90
22364;DHT22;11349;53.412;-1.328;2022-12-07T09:59:15;2.80;99.90
22364;DHT22;11349;53.412;-1.328;2022-12-07T10:01:42;2.80;99.90
22364;DHT22;11349;53.412;-1.328;2022-12-07T10:04:17;2.90;99.90
22364;DHT22;11349;53.412;-1.328;2022-12-07T10:06:43;2.90;99.90
22364;DHT22;11349;53.412;-1.328;2022-12-07T10:09:15;3.00;99.90
22364;DHT22;11349;53.412;-1.328;2022-12-07T10:12:10;2.90;99.90
22364;DHT22;11349;53.412;-1.328;2022-12-07T10:15:03;2.80;99.90
22364;DHT22;11349;53.412;-1.328;2022-12-07T10:17:38;2.80;99.90
22364;DHT22;11349;53.412;-1.328;2022-12-07T10:25:21;2.80;99.90
22364;DHT22;11349;53.412;-1.328;2022-12-07T10:28:16;2.80;99.90
22364;DHT22;11349;53.412;-1.328;2022-12-07T10:31:02;2.90;99.90
22364;DHT22;11349;53.412;-1.328;2022-12-07T10:33:36;2.90;99.90
22364;DHT22;11349;53.412;-1.328;2022-12-07T10:36:27;3.00;99.90
22364;DHT22;11349;53.412;-1.328;2022-12-07T10:41:26;3.00;99.90
22364;DHT22;11349;53.412;-1.328;2022-12-07T10:43:54;3.00;99.90
22364;DHT22;11349;53.412;-1.328;2022-12-07T10:52:09;3.30;99.90
22364;DHT22;11349;53.412;-1.328;2022-12-07T10:55:21;3.30;99.90
22364;DHT22;11349;53.412;-1.328;2022-12-07T11:07:51;3.30;99.90
22364;DHT22;11349;53.412;-1.328;2022-12-07T11:10:55;3.30;99.90
22364;DHT22;11349;53.412;-1.328;2022-12-07T11:13:28;3.40;99.90
22364;DHT22;11349;53.412;-1.328;2022-12-07T11:16:02;3.40;99.90
22364;DHT22;11349;53.412;-1.328;2022-12-07T11:24:15;3.50;99.90
22364;DHT22;11349;53.412;-1.328;2022-12-07T11:32:50;3.60;99.90
22364;DHT22;11349;53.412;-1.328;2022-12-07T11:37:43;3.70;99.90
22364;DHT22;11349;53.412;-1.328;2022-12-07T11:40:32;3.70;99.90
22364;DHT22;11349;53.412;-1.328;2022-12-07T11:45:39;3.70;99.90
22364;DHT22;11349;53.412;-1.328;2022-12-07T11:48:14;3.70;99.90
22364;DHT22;11349;53.412;-1.328;2022-12-07T11:50:44;3.70;99.90
22364;DHT22;11349;53.412;-1.328;2022-12-07T11:53:21;3.70;99.90
22364;DHT22;11349;53.412;-1.328;2022-12-07T11:58:45;3.70;99.90
22364;DHT22;11349;53.412;-1.328;2022-12-07T12:03:54;3.80;95.90
22364;DHT22;11349;53.412;-1.328;2022-12-07T12:06:21;3.80;56.60
22364;DHT22;11349;53.412;-1.328;2022-12-07T12:09:30;3.80;85.20
22364;DHT22;11349;53.412;-1.328;2022-12-07T12:22:42;3.90;44.40
22364;DHT22;11349;53.412;-1.328;2022-12-07T12:25:26;4.00;26.40
22364;DHT22;11349;53.412;-1.328;2022-12-07T12:27:55;4.00;28.60
22364;DHT22;11349;53.412;-1.328;2022-12-07T12:30:36;4.00;17.30
22364;DHT22;11349;53.412;-1.328;2022-12-07T12:33:27;4.00;21.20
22364;DHT22;11349;53.412;-1.328;2022-12-07T12:38:49;4.00;28.20
22364;DHT22;11349;53.412;-1.328;2022-12-07T12:44:02;4.10;4.70
22364;DHT22;11349;53.412;-1.328;2022-12-07T12:54:22;4.10;1.00
22364;DHT22;11349;53.412;-1.328;2022-12-07T12:57:26;4.10;1.00
22364;DHT22;11349;53.412;-1.328;2022-12-07T13:04:50;4.20;1.00
22364;DHT22;11349;53.412;-1.328;2022-12-07T13:13:03;4.20;99.90
22364;DHT22;11349;53.412;-1.328;2022-12-07T13:15:48;4.20;99.90
22364;DHT22;11349;53.412;-1.328;2022-12-07T13:21:00;4.30;48.40
22364;DHT22;11349;53.412;-1.328;2022-12-07T13:23:57;4.30;83.70
22364;DHT22;11349;53.412;-1.328;2022-12-07T13:31:45;4.30;47.20
22364;DHT22;11349;53.412;-1.328;2022-12-07T13:36:55;4.40;22.40
22364;DHT22;11349;53.412;-1.328;2022-12-07T13:39:23;4.40;1.00
22364;DHT22;11349;53.412;-1.328;2022-12-07T13:41:58;4.40;1.00
22364;DHT22;11349;53.412;-1.328;2022-12-07T13:44:26;4.50;1.00
22364;DHT22;11349;53.412;-1.328;2022-12-07T13:47:16;4.40;1.00
22364;DHT22;11349;53.412;-1.328;2022-12-07T13:50:02;4.50;1.00
22364;DHT22;11349;53.412;-1.328;2022-12-07T13:52:46;4.40;1.00
22364;DHT22;11349;53.412;-1.328;2022-12-07T13:55:17;4.40;1.00
22364;DHT22;11349;53.412;-1.328;2022-12-07T13:57:45;4.40;1.00
22364;DHT22;11349;53.412;-1.328;2022-12-07T14:00:17;4.40;1.00
22364;DHT22;11349;53.412;-1.328;2022-12-07T14:05:43;4.40;1.00
22364;DHT22;11349;53.412;-1.328;2022-12-07T14:13:50;4.30;1.00
22364;DHT22;11349;53.412;-1.328;2022-12-07T14:17:22;4.40;1.00
22364;DHT22;11349;53.412;-1.328;2022-12-07T14:19:43;4.40;1.00
22364;DHT22;11349;53.412;-1.328;2022-12-07T14:22:20;4.40;1.00
22364;DHT22;11349;53.412;-1.328;2022-12-07T14:24:47;4.30;1.00
22364;DHT22;11349;53.412;-1.328;2022-12-07T14:27:21;4.40;1.00
22364;DHT22;11349;53.412;-1.328;2022-12-07T14:29:48;4.40;1.00
22364;DHT22;11349;53.412;-1.328;2022-12-07T14:35:01;4.30;1.00
22364;DHT22;11349;53.412;-1.328;2022-12-07T14:37:29;4.40;1.00
22364;DHT22;11349;53.412;-1.328;2022-12-07T14:39:55;4.40;1.00
22364;DHT22;11349;53.412;-1.328;2022-12-07T14:42:24;4.40;1.00
22364;DHT22;11349;53.412;-1.328;2022-12-07T14:44:50;4.40;1.00
22364;DHT22;11349;53.412;-1.328;2022-12-07T14:47:16;4.30;1.00
22364;DHT22;11349;53.412;-1.328;2022-12-07T14:49:42;4.30;1.00
22364;DHT22;11349;53.412;-1.328;2022-12-07T14:52:20;4.30;1.00
22364;DHT22;11349;53.412;-1.328;2022-12-07T14:54:46;4.20;1.00
22364;DHT22;11349;53.412;-1.328;2022-12-07T14:57:12;4.20;1.00
22364;DHT22;11349;53.412;-1.328;2022-12-07T14:59:38;4.10;71.00
22364;DHT22;11349;53.412;-1.328;2022-12-07T15:02:04;4.10;18.20
22364;DHT22;11349;53.412;-1.328;2022-12-07T15:04:30;4.10;97.10
22364;DHT22;11349;53.412;-1.328;2022-12-07T15:07:01;4.00;98.40
22364;DHT22;11349;53.412;-1.328;2022-12-07T15:09:27;4.00;99.90
22364;DHT22;11349;53.412;-1.328;2022-12-07T15:11:53;4.10;56.30
22364;DHT22;11349;53.412;-1.328;2022-12-07T15:14:18;4.00;43.80
22364;DHT22;11349;53.412;-1.328;2022-12-07T15:16:44;4.00;99.90
22364;DHT22;11349;53.412;-1.328;2022-12-07T15:19:17;3.90;69.60
22364;DHT22;11349;53.412;-1.328;2022-12-07T15:21:43;3.90;99.90
22364;DHT22;11349;53.412;-1.328;2022-12-07T15:24:12;3.90;99.90
22364;DHT22;11349;53.412;-1.328;2022-12-07T15:26:39;3.80;1.00
22364;DHT22;11349;53.412;-1.328;2022-12-07T15:29:05;3.80;1.00
22364;DHT22;11349;53.412;-1.328;2022-12-07T15:31:32;3.70;1.00
22364;DHT22;11349;53.412;-1.328;2022-12-07T15:34:01;3.70;1.00
22364;DHT22;11349;53.412;-1.328;2022-12-07T15:36:28;3.70;1.00
22364;DHT22;11349;53.412;-1.328;2022-12-07T15:38:56;3.60;1.00
22364;DHT22;11349;53.412;-1.328;2022-12-07T15:41:22;3.60;14.00
22364;DHT22;11349;53.412;-1.328;2022-12-07T15:43:48;3.60;1.00
22364;DHT22;11349;53.412;-1.328;2022-12-07T15:46:34;3.60;22.40
22364;DHT22;11349;53.412;-1.328;2022-12-07T15:49:07;3.50;77.70
22364;DHT22;11349;53.412;-1.328;2022-12-07T15:51:34;3.40;99.90
22364;DHT22;11349;53.412;-1.328;2022-12-07T15:53:59;3.40;99.90
22364;DHT22;11349;53.412;-1.328;2022-12-07T15:56:25;3.40;99.90
22364;DHT22;11349;53.412;-1.328;2022-12-07T15:58:51;3.30;99.90
22364;DHT22;11349;53.412;-1.328;2022-12-07T16:01:18;3.40;99.90
22364;DHT22;11349;53.412;-1.328;2022-12-07T16:03:45;3.30;99.90
22364;DHT22;11349;53.412;-1.328;2022-12-07T16:06:12;3.30;99.90
22364;DHT22;11349;53.412;-1.328;2022-12-07T16:08:44;3.30;99.90
22364;DHT22;11349;53.412;-1.328;2022-12-07T16:11:11;3.20;99.90
22364;DHT22;11349;53.412;-1.328;2022-12-07T16:13:38;3.20;99.90
22364;DHT22;11349;53.412;-1.328;2022-12-07T16:16:10;3.20;99.90
22364;DHT22;11349;53.412;-1.328;2022-12-07T16:18:37;3.20;99.90
22364;DHT22;11349;53.412;-1.328;2022-12-07T16:21:06;3.20;99.90
22364;DHT22;11349;53.412;-1.328;2022-12-07T16:23:31;3.20;99.90
22364;DHT22;11349;53.412;-1.328;2022-12-07T16:26:15;3.20;99.90
22364;DHT22;11349;53.412;-1.328;2022-12-07T16:28:42;3.20;99.90
22364;DHT22;11349;53.412;-1.328;2022-12-07T16:31:10;3.10;99.90
22364;DHT22;11349;53.412;-1.328;2022-12-07T16:33:38;3.10;99.90
22364;DHT22;11349;53.412;-1.328;2022-12-07T16:36:05;3.10;99.90
22364;DHT22;11349;53.412;-1.328;2022-12-07T16:38:32;3.00;99.90
22364;DHT22;11349;53.412;-1.328;2022-12-07T16:40:57;3.00;99.90
22364;DHT22;11349;53.412;-1.328;2022-12-07T16:43:23;2.90;99.90
22364;DHT22;11349;53.412;-1.328;2022-12-07T16:45:49;2.90;99.90
22364;DHT22;11349;53.412;-1.328;2022-12-07T16:48:16;2.90;99.90
22364;DHT22;11349;53.412;-1.328;2022-12-07T16:50:43;2.80;99.90
22364;DHT22;11349;53.412;-1.328;2022-12-07T16:53:12;2.80;99.90
22364;DHT22;11349;53.412;-1.328;2022-12-07T16:55:39;2.80;99.90
22364;DHT22;11349;53.412;-1.328;2022-12-07T16:58:06;2.70;99.90
22364;DHT22;11349;53.412;-1.328;2022-12-07T17:00:32;2.70;99.90
22364;DHT22;11349;53.412;-1.328;2022-12-07T17:02:58;2.70;99.90
22364;DHT22;11349;53.412;-1.328;2022-12-07T17:05:24;2.70;99.90
22364;DHT22;11349;53.412;-1.328;2022-12-07T17:07:52;2.70;99.90
22364;DHT22;11349;53.412;-1.328;2022-12-07T17:10:18;2.60;1.00
22364;DHT22;11349;53.412;-1.328;2022-12-07T17:12:43;2.50;1.00
22364;DHT22;11349;53.412;-1.328;2022-12-07T17:15:10;2.50;1.00
22364;DHT22;11349;53.412;-1.328;2022-12-07T17:17:58;2.40;1.00
22364;DHT22;11349;53.412;-1.328;2022-12-07T17:20:26;2.30;1.00
22364;DHT22;11349;53.412;-1.328;2022-12-07T17:22:53;2.30;1.00
22364;DHT22;11349;53.412;-1.328;2022-12-07T17:25:19;2.20;1.00
22364;DHT22;11349;53.412;-1.328;2022-12-07T17:27:46;2.20;1.00
22364;DHT22;11349;53.412;-1.328;2022-12-07T17:30:12;2.10;1.00
22364;DHT22;11349;53.412;-1.328;2022-12-07T17:32:38;2.10;1.00
22364;DHT22;11349;53.412;-1.328;2022-12-07T17:35:05;2.10;1.00
22364;DHT22;11349;53.412;-1.328;2022-12-07T17:37:32;2.00;1.00
22364;DHT22;11349;53.412;-1.328;2022-12-07T17:39:57;2.00;1.00
22364;DHT22;11349;53.412;-1.328;2022-12-07T17:42:25;2.00;1.00
22364;DHT22;11349;53.412;-1.328;2022-12-07T17:45:06;2.00;1.00
22364;DHT22;11349;53.412;-1.328;2022-12-07T17:47:33;1.90;1.00
22364;DHT22;11349;53.412;-1.328;2022-12-07T17:49:58;2.00;1.00
22364;DHT22;11349;53.412;-1.328;2022-12-07T17:52:24;2.00;1.00
22364;DHT22;11349;53.412;-1.328;2022-12-07T17:55:08;2.00;1.00
22364;DHT22;11349;53.412;-1.328;2022-12-07T17:57:34;2.00;1.00
22364;DHT22;11349;53.412;-1.328;2022-12-07T18:00:00;2.00;1.00
22364;DHT22;11349;53.412;-1.328;2022-12-07T18:02:25;1.90;1.00
22364;DHT22;11349;53.412;-1.328;2022-12-07T18:04:51;1.90;1.00
22364;DHT22;11349;53.412;-1.328;2022-12-07T18:07:17;1.90;1.00